Jolyn — PJWG — position and weather

sailwx.info

Track history (hours):
 
Tides and Currents Weather Stations Pressure Air Temp Water Temp Dewpoint Dewpoint Depression Visibility Wind Speed Wind Dir Waves Ship Positions

Jolyn

Last reported at 2017-Dec-18 16:30 UTC. Time now 2017-Dec-18 16:50 UTC.
Position N 55°56' E 016°06'.

Length 90 m; draft 5.3 m.

Type: Cargo ship. MMSI: 306813000.

Date/timePositionNaut miles runAvg speedWind from/ knotsBaromVisibWave heightAir tempDewpointWater temp
2017-Dec-18 16:30N 55°56' E 016°06'5 9.8
2017-Dec-18 16:00N 55°59' E 016°14'5 9.8
2017-Dec-18 15:30N 56°01' E 016°21'510.0
2017-Dec-18 15:00N 56°04' E 016°29'5 9.9
2017-Dec-18 14:30N 56°06' E 016°37'329 9.9
2017-Dec-17 05:05N 59°46' E 024°18'110.7
2017-Dec-17 05:00N 59°47' E 024°20'510.6
2017-Dec-17 04:30N 59°48' E 024°30'510.6
2017-Dec-17 04:00N 59°49' E 024°40'510.8
2017-Dec-17 03:30N 59°50' E 024°51'510.7
2017-Dec-17 03:00N 59°51' E 025°01'510.6
2017-Dec-17 02:30N 59°52' E 025°12'610.6
2017-Dec-17 01:58N 59°53' E 025°23'2510.4
2017-Dec-16 23:33N 59°58' E 026°12'010.3
2017-Dec-16 23:30N 59°58' E 026°13'510.4
2017-Dec-16 23:00N 59°60' E 026°23'510.5
2017-Dec-16 22:30N 60°01' E 026°33'510.4
2017-Dec-16 22:00N 60°01' E 026°44'510.3
2017-Dec-16 21:30N 60°00' E 026°54'510.0
2017-Dec-16 21:00N 59°60' E 027°04'510.4
2017-Dec-16 20:30N 60°02' E 027°13'510.3
2017-Dec-16 20:00N 60°05' E 027°22'510.2
2017-Dec-16 19:30N 60°08' E 027°30'510.3
2017-Dec-16 19:00N 60°10' E 027°40'510.0
2017-Dec-16 18:30N 60°11' E 027°49'510.4
2017-Dec-16 18:00N 60°10' E 027°59'510.5
2017-Dec-16 17:30N 60°09' E 028°10'510.3
2017-Dec-16 17:00N 60°07' E 028°19'510.5
2017-Dec-16 16:30N 60°04' E 028°28'510.2
2017-Dec-16 16:00N 60°03' E 028°38'510.5
2017-Dec-16 15:30N 60°03' E 028°49'2210.1
2017-Dec-16 13:19N 60°01' E 029°33'310.6
2017-Dec-16 13:00N 59°60' E 029°39'5 9.2
2017-Dec-16 12:30N 59°58' E 029°47'1 0.0
2017-Dec-15 01:00N 59°59' E 029°46'55 8.5
2017-Dec-14 18:30N 60°09' E 027°57'4 8.8
2017-Dec-14 18:00N 60°10' E 027°49'5 9.1
2017-Dec-14 17:31N 60°09' E 027°40'510.7
2017-Dec-14 17:00N 60°06' E 027°31'4 7.9
2017-Dec-14 16:30N 60°04' E 027°24'4 8.6
2017-Dec-14 16:00N 60°02' E 027°17'9 8.9
2017-Dec-14 15:00N 59°58' E 027°01'4 8.6
2017-Dec-14 14:30N 59°59' E 026°52'4 7.4
2017-Dec-14 14:01N 59°59' E 026°45'4 8.3
2017-Dec-14 13:31N 59°59' E 026°37'4 8.3
2017-Dec-14 13:00N 59°58' E 026°29'5 9.2
2017-Dec-14 12:30N 59°57' E 026°20'30 8.6
2017-Dec-14 08:59N 59°50' E 025°21'510.4
2017-Dec-14 08:30N 59°49' E 025°11'510.1
2017-Dec-14 08:00N 59°48' E 025°01'611.6
2017-Dec-14 07:30N 59°46' E 024°50'4 8.9
2017-Dec-14 07:01N 59°45' E 024°41'510.9
2017-Dec-14 06:30N 59°44' E 024°31'5 9.3
2017-Dec-14 06:01N 59°43' E 024°22'62 7.6
2017-Dec-13 21:52N 59°53' E 022°21'3 7.9
2017-Dec-13 21:29N 59°56' E 022°19'4 9.0
2017-Dec-13 21:00N 60°00' E 022°16'19 1.7
2017-Dec-13 09:26N 60°10' E 021°42'510.7
2017-Dec-13 09:00N 60°05' E 021°42'511.0
2017-Dec-13 08:31N 59°60' E 021°42'510.6
2017-Dec-13 08:01N 59°55' E 021°36'611.1
2017-Dec-13 07:30N 59°52' E 021°27'510.7
2017-Dec-13 07:01N 59°48' E 021°20'510.0
2017-Dec-13 06:31N 59°43' E 021°20'510.7
2017-Dec-13 06:01N 59°38' E 021°15'510.2
2017-Dec-13 05:31N 59°35' E 021°08'262 9.9
2017-Dec-12 03:03N 55°54' E 016°43'1010.9
2017-Dec-12 02:10N 55°46' E 016°34'211.0
2017-Dec-12 01:58N 55°44' E 016°32'510.9
2017-Dec-12 01:29N 55°40' E 016°26'138 9.8
2017-Dec-11 11:28N 53°38' E 014°34'510.0
2017-Dec-11 11:00N 53°34' E 014°36'5 9.2
2017-Dec-11 10:31N 53°29' E 014°37'3 6.6
2017-Dec-11 10:01N 53°26' E 014°35'0 0.0
2017-Dec-11 09:29N 53°26' E 014°35'0 0.0
2017-Dec-11 08:59N 53°26' E 014°35'0 0.0
2017-Dec-11 08:29N 53°26' E 014°35'0 0.0
2017-Dec-11 07:59N 53°26' E 014°35'0 0.0
2017-Dec-11 07:29N 53°26' E 014°35'0 0.0
2017-Dec-11 06:56N 53°26' E 014°35'0 0.0
2017-Dec-11 06:29N 53°26' E 014°35'0 0.0
2017-Dec-11 05:59N 53°26' E 014°35'0 0.0
2017-Dec-11 05:29N 53°26' E 014°35'0 0.0
2017-Dec-11 04:59N 53°26' E 014°35'0 0.0
2017-Dec-11 04:29N 53°26' E 014°35'0 0.0
2017-Dec-11 03:59N 53°26' E 014°35'0 0.0
2017-Dec-11 03:29N 53°26' E 014°35'0 0.0
2017-Dec-11 02:59N 53°26' E 014°35'0 0.0
2017-Dec-11 02:29N 53°26' E 014°35'0 0.0
2017-Dec-11 01:59N 53°26' E 014°35'0 0.0
2017-Dec-11 01:29N 53°26' E 014°35'0 0.0
2017-Dec-11 00:59N 53°26' E 014°35'0 0.0
2017-Dec-11 00:29N 53°26' E 014°35'0 0.0
2017-Dec-10 23:59N 53°26' E 014°35'0 0.0
2017-Dec-10 23:29N 53°26' E 014°35'0 0.0
2017-Dec-10 22:59N 53°26' E 014°35'0 0.0
2017-Dec-10 22:29N 53°26' E 014°35'0 0.0
2017-Dec-10 21:59N 53°26' E 014°35'0 0.0
2017-Dec-10 21:29N 53°26' E 014°35'0 0.0
2017-Dec-10 20:59N 53°26' E 014°35'0 0.0
2017-Dec-10 20:29N 53°26' E 014°35'0 0.0
2017-Dec-10 19:59N 53°26' E 014°35'0 0.0
2017-Dec-10 19:29N 53°26' E 014°35'0 0.0
2017-Dec-10 18:59N 53°26' E 014°35'0 0.0
2017-Dec-10 18:29N 53°26' E 014°35'0 0.0
2017-Dec-10 17:59N 53°26' E 014°35'0 0.0
2017-Dec-10 17:29N 53°26' E 014°35'0 0.0
2017-Dec-10 16:59N 53°26' E 014°35'0 0.0
2017-Dec-10 16:29N 53°26' E 014°35'0 0.0
2017-Dec-10 15:59N 53°26' E 014°35'0 0.0
2017-Dec-10 15:29N 53°26' E 014°35'0 0.0
2017-Dec-10 14:59N 53°26' E 014°35'0 0.0
2017-Dec-10 14:29N 53°26' E 014°35'0 0.0
2017-Dec-10 13:59N 53°26' E 014°35'0 0.0
2017-Dec-10 13:29N 53°26' E 014°35'0 0.0
2017-Dec-10 12:59N 53°26' E 014°35'0 0.0
2017-Dec-10 12:29N 53°26' E 014°35'0 0.0
2017-Dec-10 11:59N 53°26' E 014°35'0 0.0
2017-Dec-10 11:29N 53°26' E 014°35'0 0.0
2017-Dec-10 10:59N 53°26' E 014°35'0 0.0
2017-Dec-10 10:29N 53°26' E 014°35'0 0.0
2017-Dec-10 09:59N 53°26' E 014°35'0 0.0
2017-Dec-10 09:29N 53°26' E 014°35'0 0.0
2017-Dec-10 08:59N 53°26' E 014°35'0 0.0
2017-Dec-10 08:29N 53°26' E 014°35'0 0.0
2017-Dec-10 07:59N 53°26' E 014°35'0 0.0
2017-Dec-10 07:26N 53°26' E 014°35'0 0.0
2017-Dec-10 06:59N 53°26' E 014°35'0 0.0
2017-Dec-10 06:29N 53°26' E 014°35'0 0.0
2017-Dec-10 05:59N 53°26' E 014°35'0 0.0
2017-Dec-10 05:29N 53°26' E 014°35'0 0.0
2017-Dec-10 04:59N 53°26' E 014°35'0 0.0
2017-Dec-10 04:29N 53°26' E 014°35'0 0.0
2017-Dec-10 03:59N 53°26' E 014°35'0 0.0
2017-Dec-10 03:29N 53°26' E 014°35'0 0.0
2017-Dec-10 02:59N 53°26' E 014°35'0 0.0
2017-Dec-10 02:29N 53°26' E 014°35'0 0.0
2017-Dec-10 01:59N 53°26' E 014°35'0 0.0
2017-Dec-10 01:29N 53°26' E 014°35'0 0.0
2017-Dec-10 00:59N 53°26' E 014°35'0 0.0
2017-Dec-10 00:29N 53°26' E 014°35'0 0.0
2017-Dec-09 23:59N 53°26' E 014°35'0 0.0
2017-Dec-09 23:29N 53°26' E 014°35'0 0.0
2017-Dec-09 22:59N 53°26' E 014°35'0 0.0
2017-Dec-09 22:29N 53°26' E 014°35'0 0.0
2017-Dec-09 21:59N 53°26' E 014°35'0 0.0
2017-Dec-09 21:29N 53°26' E 014°35'0 0.0
2017-Dec-09 20:59N 53°26' E 014°35'0 0.0
2017-Dec-09 20:29N 53°26' E 014°35'0 0.0
2017-Dec-09 19:59N 53°26' E 014°35'0 0.0
2017-Dec-09 19:29N 53°26' E 014°35'0 0.0
2017-Dec-09 18:59N 53°26' E 014°35'0 0.0
2017-Dec-09 18:29N 53°26' E 014°35'0 0.0
2017-Dec-09 17:59N 53°26' E 014°35'0 0.0
2017-Dec-09 17:29N 53°26' E 014°35'0 0.0
2017-Dec-09 16:53N 53°26' E 014°35'0 0.0
2017-Dec-09 16:29N 53°26' E 014°35'0 0.0
2017-Dec-09 15:59N 53°26' E 014°35'0 0.0
2017-Dec-09 15:29N 53°26' E 014°35'0 0.0
2017-Dec-09 15:01N 53°26' E 014°35'3 5.9
2017-Dec-09 14:30N 53°29' E 014°37'4 8.7
2017-Dec-09 14:00N 53°33' E 014°36'5 9.9
2017-Dec-09 13:29N 53°38' E 014°34'90 7.8
2017-Dec-09 01:59N 54°40' E 012°43'510.7
2017-Dec-09 01:30N 54°37' E 012°35'1110.8
2017-Dec-09 00:31N 54°32' E 012°19'011.1
2017-Dec-09 00:31N 54°32' E 012°19'510.8
2017-Dec-09 00:00N 54°27' E 012°14'510.2
2017-Dec-08 23:31N 54°25' E 012°06'1410.4
2017-Dec-08 22:12N 54°26' E 011°43'311.1
2017-Dec-08 21:56N 54°27' E 011°38'511.1
2017-Dec-08 21:31N 54°29' E 011°31'611.3
2017-Dec-08 21:01N 54°31' E 011°22'611.0
2017-Dec-08 20:30N 54°34' E 011°14'511.0
2017-Dec-08 20:01N 54°37' E 011°06'510.4
2017-Dec-08 19:31N 54°40' E 010°58'5 9.6
2017-Dec-08 19:00N 54°43' E 010°52'510.2
2017-Dec-08 18:31N 54°48' E 010°52'510.9
2017-Dec-08 18:01N 54°53' E 010°53'510.5
2017-Dec-08 17:31N 54°58' E 010°58'5 9.6
2017-Dec-08 17:00N 55°02' E 011°01'  
Track history (hours):
 
Tides and Currents Weather Stations Pressure Air Temp Water Temp Dewpoint Dewpoint Depression Visibility Wind Speed Wind Dir Waves Ship Positions

Jolyn

Last reported at 2017-Dec-18 16:30 UTC. Time now 2017-Dec-18 16:50 UTC.
Position N 55°56' E 016°06'.

Length 90 m; draft 5.3 m.

Type: Cargo ship. MMSI: 306813000.

Date/timePositionNaut miles runAvg speedWind from/ knotsBaromVisibWave heightAir tempDewpointWater temp
2017-Dec-18 16:30N 55°56' E 016°06'5 9.8
2017-Dec-18 16:00N 55°59' E 016°14'5 9.8
2017-Dec-18 15:30N 56°01' E 016°21'510.0
2017-Dec-18 15:00N 56°04' E 016°29'5 9.9
2017-Dec-18 14:30N 56°06' E 016°37'329 9.9
2017-Dec-17 05:05N 59°46' E 024°18'110.7
2017-Dec-17 05:00N 59°47' E 024°20'510.6
2017-Dec-17 04:30N 59°48' E 024°30'510.6
2017-Dec-17 04:00N 59°49' E 024°40'510.8
2017-Dec-17 03:30N 59°50' E 024°51'510.7
2017-Dec-17 03:00N 59°51' E 025°01'510.6
2017-Dec-17 02:30N 59°52' E 025°12'610.6
2017-Dec-17 01:58N 59°53' E 025°23'2510.4
2017-Dec-16 23:33N 59°58' E 026°12'010.3
2017-Dec-16 23:30N 59°58' E 026°13'510.4
2017-Dec-16 23:00N 59°60' E 026°23'510.5
2017-Dec-16 22:30N 60°01' E 026°33'510.4
2017-Dec-16 22:00N 60°01' E 026°44'510.3
2017-Dec-16 21:30N 60°00' E 026°54'510.0
2017-Dec-16 21:00N 59°60' E 027°04'510.4
2017-Dec-16 20:30N 60°02' E 027°13'510.3
2017-Dec-16 20:00N 60°05' E 027°22'510.2
2017-Dec-16 19:30N 60°08' E 027°30'510.3
2017-Dec-16 19:00N 60°10' E 027°40'510.0
2017-Dec-16 18:30N 60°11' E 027°49'510.4
2017-Dec-16 18:00N 60°10' E 027°59'510.5
2017-Dec-16 17:30N 60°09' E 028°10'510.3
2017-Dec-16 17:00N 60°07' E 028°19'510.5
2017-Dec-16 16:30N 60°04' E 028°28'510.2
2017-Dec-16 16:00N 60°03' E 028°38'510.5
2017-Dec-16 15:30N 60°03' E 028°49'2210.1
2017-Dec-16 13:19N 60°01' E 029°33'310.6
2017-Dec-16 13:00N 59°60' E 029°39'5 9.2
2017-Dec-16 12:30N 59°58' E 029°47'1 0.0
2017-Dec-15 01:00N 59°59' E 029°46'55 8.5
2017-Dec-14 18:30N 60°09' E 027°57'4 8.8
2017-Dec-14 18:00N 60°10' E 027°49'5 9.1
2017-Dec-14 17:31N 60°09' E 027°40'510.7
2017-Dec-14 17:00N 60°06' E 027°31'4 7.9
2017-Dec-14 16:30N 60°04' E 027°24'4 8.6
2017-Dec-14 16:00N 60°02' E 027°17'9 8.9
2017-Dec-14 15:00N 59°58' E 027°01'4 8.6
2017-Dec-14 14:30N 59°59' E 026°52'4 7.4
2017-Dec-14 14:01N 59°59' E 026°45'4 8.3
2017-Dec-14 13:31N 59°59' E 026°37'4 8.3
2017-Dec-14 13:00N 59°58' E 026°29'5 9.2
2017-Dec-14 12:30N 59°57' E 026°20'30 8.6
2017-Dec-14 08:59N 59°50' E 025°21'510.4
2017-Dec-14 08:30N 59°49' E 025°11'510.1
2017-Dec-14 08:00N 59°48' E 025°01'611.6
2017-Dec-14 07:30N 59°46' E 024°50'4 8.9
2017-Dec-14 07:01N 59°45' E 024°41'510.9
2017-Dec-14 06:30N 59°44' E 024°31'5 9.3
2017-Dec-14 06:01N 59°43' E 024°22'62 7.6
2017-Dec-13 21:52N 59°53' E 022°21'3 7.9
2017-Dec-13 21:29N 59°56' E 022°19'4 9.0
2017-Dec-13 21:00N 60°00' E 022°16'19 1.7
2017-Dec-13 09:26N 60°10' E 021°42'510.7
2017-Dec-13 09:00N 60°05' E 021°42'511.0
2017-Dec-13 08:31N 59°60' E 021°42'510.6
2017-Dec-13 08:01N 59°55' E 021°36'611.1
2017-Dec-13 07:30N 59°52' E 021°27'510.7
2017-Dec-13 07:01N 59°48' E 021°20'510.0
2017-Dec-13 06:31N 59°43' E 021°20'510.7
2017-Dec-13 06:01N 59°38' E 021°15'510.2
2017-Dec-13 05:31N 59°35' E 021°08'262 9.9
2017-Dec-12 03:03N 55°54' E 016°43'1010.9
2017-Dec-12 02:10N 55°46' E 016°34'211.0
2017-Dec-12 01:58N 55°44' E 016°32'510.9
2017-Dec-12 01:29N 55°40' E 016°26'138 9.8
2017-Dec-11 11:28N 53°38' E 014°34'510.0
2017-Dec-11 11:00N 53°34' E 014°36'5 9.2
2017-Dec-11 10:31N 53°29' E 014°37'3 6.6
2017-Dec-11 10:01N 53°26' E 014°35'0 0.0
2017-Dec-11 09:29N 53°26' E 014°35'0 0.0
2017-Dec-11 08:59N 53°26' E 014°35'0 0.0
2017-Dec-11 08:29N 53°26' E 014°35'0 0.0
2017-Dec-11 07:59N 53°26' E 014°35'0 0.0
2017-Dec-11 07:29N 53°26' E 014°35'0 0.0
2017-Dec-11 06:56N 53°26' E 014°35'0 0.0
2017-Dec-11 06:29N 53°26' E 014°35'0 0.0
2017-Dec-11 05:59N 53°26' E 014°35'0 0.0
2017-Dec-11 05:29N 53°26' E 014°35'0 0.0
2017-Dec-11 04:59N 53°26' E 014°35'0 0.0
2017-Dec-11 04:29N 53°26' E 014°35'0 0.0
2017-Dec-11 03:59N 53°26' E 014°35'0 0.0
2017-Dec-11 03:29N 53°26' E 014°35'0 0.0
2017-Dec-11 02:59N 53°26' E 014°35'0 0.0
2017-Dec-11 02:29N 53°26' E 014°35'0 0.0
2017-Dec-11 01:59N 53°26' E 014°35'0 0.0
2017-Dec-11 01:29N 53°26' E 014°35'0 0.0
2017-Dec-11 00:59N 53°26' E 014°35'0 0.0
2017-Dec-11 00:29N 53°26' E 014°35'0 0.0
2017-Dec-10 23:59N 53°26' E 014°35'0 0.0
2017-Dec-10 23:29N 53°26' E 014°35'0 0.0
2017-Dec-10 22:59N 53°26' E 014°35'0 0.0
2017-Dec-10 22:29N 53°26' E 014°35'0 0.0
2017-Dec-10 21:59N 53°26' E 014°35'0 0.0
2017-Dec-10 21:29N 53°26' E 014°35'0 0.0
2017-Dec-10 20:59N 53°26' E 014°35'0 0.0
2017-Dec-10 20:29N 53°26' E 014°35'0 0.0
2017-Dec-10 19:59N 53°26' E 014°35'0 0.0
2017-Dec-10 19:29N 53°26' E 014°35'0 0.0
2017-Dec-10 18:59N 53°26' E 014°35'0 0.0
2017-Dec-10 18:29N 53°26' E 014°35'0 0.0
2017-Dec-10 17:59N 53°26' E 014°35'0 0.0
2017-Dec-10 17:29N 53°26' E 014°35'0 0.0
2017-Dec-10 16:59N 53°26' E 014°35'0 0.0
2017-Dec-10 16:29N 53°26' E 014°35'0 0.0
2017-Dec-10 15:59N 53°26' E 014°35'0 0.0
2017-Dec-10 15:29N 53°26' E 014°35'0 0.0
2017-Dec-10 14:59N 53°26' E 014°35'0 0.0
2017-Dec-10 14:29N 53°26' E 014°35'0 0.0
2017-Dec-10 13:59N 53°26' E 014°35'0 0.0
2017-Dec-10 13:29N 53°26' E 014°35'0 0.0
2017-Dec-10 12:59N 53°26' E 014°35'0 0.0
2017-Dec-10 12:29N 53°26' E 014°35'0 0.0
2017-Dec-10 11:59N 53°26' E 014°35'0 0.0
2017-Dec-10 11:29N 53°26' E 014°35'0 0.0
2017-Dec-10 10:59N 53°26' E 014°35'0 0.0
2017-Dec-10 10:29N 53°26' E 014°35'0 0.0
2017-Dec-10 09:59N 53°26' E 014°35'0 0.0
2017-Dec-10 09:29N 53°26' E 014°35'0 0.0
2017-Dec-10 08:59N 53°26' E 014°35'0 0.0
2017-Dec-10 08:29N 53°26' E 014°35'0 0.0
2017-Dec-10 07:59N 53°26' E 014°35'0 0.0
2017-Dec-10 07:26N 53°26' E 014°35'0 0.0
2017-Dec-10 06:59N 53°26' E 014°35'0 0.0
2017-Dec-10 06:29N 53°26' E 014°35'0 0.0
2017-Dec-10 05:59N 53°26' E 014°35'0 0.0
2017-Dec-10 05:29N 53°26' E 014°35'0 0.0
2017-Dec-10 04:59N 53°26' E 014°35'0 0.0
2017-Dec-10 04:29N 53°26' E 014°35'0 0.0
2017-Dec-10 03:59N 53°26' E 014°35'0 0.0
2017-Dec-10 03:29N 53°26' E 014°35'0 0.0
2017-Dec-10 02:59N 53°26' E 014°35'0 0.0
2017-Dec-10 02:29N 53°26' E 014°35'0 0.0
2017-Dec-10 01:59N 53°26' E 014°35'0 0.0
2017-Dec-10 01:29N 53°26' E 014°35'0 0.0
2017-Dec-10 00:59N 53°26' E 014°35'0 0.0
2017-Dec-10 00:29N 53°26' E 014°35'0 0.0
2017-Dec-09 23:59N 53°26' E 014°35'0 0.0
2017-Dec-09 23:29N 53°26' E 014°35'0 0.0
2017-Dec-09 22:59N 53°26' E 014°35'0 0.0
2017-Dec-09 22:29N 53°26' E 014°35'0 0.0
2017-Dec-09 21:59N 53°26' E 014°35'0 0.0
2017-Dec-09 21:29N 53°26' E 014°35'0 0.0
2017-Dec-09 20:59N 53°26' E 014°35'0 0.0
2017-Dec-09 20:29N 53°26' E 014°35'0 0.0
2017-Dec-09 19:59N 53°26' E 014°35'0 0.0
2017-Dec-09 19:29N 53°26' E 014°35'0 0.0
2017-Dec-09 18:59N 53°26' E 014°35'0 0.0
2017-Dec-09 18:29N 53°26' E 014°35'0 0.0
2017-Dec-09 17:59N 53°26' E 014°35'0 0.0
2017-Dec-09 17:29N 53°26' E 014°35'0 0.0
2017-Dec-09 16:53N 53°26' E 014°35'0 0.0
2017-Dec-09 16:29N 53°26' E 014°35'0 0.0
2017-Dec-09 15:59N 53°26' E 014°35'0 0.0
2017-Dec-09 15:29N 53°26' E 014°35'0 0.0
2017-Dec-09 15:01N 53°26' E 014°35'3 5.9
2017-Dec-09 14:30N 53°29' E 014°37'4 8.7
2017-Dec-09 14:00N 53°33' E 014°36'5 9.9
2017-Dec-09 13:29N 53°38' E 014°34'90 7.8
2017-Dec-09 01:59N 54°40' E 012°43'510.7
2017-Dec-09 01:30N 54°37' E 012°35'1110.8
2017-Dec-09 00:31N 54°32' E 012°19'011.1
2017-Dec-09 00:31N 54°32' E 012°19'510.8
2017-Dec-09 00:00N 54°27' E 012°14'510.2
2017-Dec-08 23:31N 54°25' E 012°06'1410.4
2017-Dec-08 22:12N 54°26' E 011°43'311.1
2017-Dec-08 21:56N 54°27' E 011°38'511.1
2017-Dec-08 21:31N 54°29' E 011°31'611.3
2017-Dec-08 21:01N 54°31' E 011°22'611.0
2017-Dec-08 20:30N 54°34' E 011°14'511.0
2017-Dec-08 20:01N 54°37' E 011°06'510.4
2017-Dec-08 19:31N 54°40' E 010°58'5 9.6
2017-Dec-08 19:00N 54°43' E 010°52'510.2
2017-Dec-08 18:31N 54°48' E 010°52'510.9
2017-Dec-08 18:01N 54°53' E 010°53'510.5
2017-Dec-08 17:31N 54°58' E 010°58'5 9.6
2017-Dec-08 17:00N 55°02' E 011°01'  

Dump ship's entire track history